createdAt,value
2018-12-06T00:00:01.739Z,8.02
2018-12-06T00:02:33.508Z,8.02
2018-12-06T00:05:04.952Z,8.03
2018-12-06T00:07:35.543Z,8.01
2018-12-06T00:10:07.246Z,7.98
2018-12-06T00:12:37.874Z,8.00
2018-12-06T00:15:27.890Z,8.01
2018-12-06T00:17:58.469Z,8.03
2018-12-06T00:20:29.063Z,8.08
2018-12-06T00:22:59.652Z,8.06
2018-12-06T00:25:30.214Z,8.00
2018-12-06T00:28:00.813Z,7.96
2018-12-06T00:30:39.206Z,7.99
2018-12-06T00:33:10.026Z,8.01
2018-12-06T00:35:40.606Z,8.01
2018-12-06T00:38:11.180Z,8.01
2018-12-06T00:40:41.982Z,8.00
2018-12-06T00:43:12.585Z,7.98
2018-12-06T00:45:43.158Z,7.97
2018-12-06T00:48:14.055Z,7.85
2018-12-06T00:50:44.634Z,7.81
2018-12-06T00:53:15.202Z,7.73
2018-12-06T00:55:45.765Z,7.75
2018-12-06T00:58:16.656Z,7.74
2018-12-06T01:00:47.245Z,7.72
2018-12-06T01:03:19.142Z,7.72
2018-12-06T01:05:49.694Z,7.79
2018-12-06T01:08:20.284Z,7.82
2018-12-06T01:10:50.974Z,7.86
2018-12-06T01:13:21.990Z,7.85
2018-12-06T01:15:52.555Z,7.80
2018-12-06T01:18:23.614Z,7.75
2018-12-06T01:20:54.198Z,7.76
2018-12-06T01:23:24.765Z,7.78
2018-12-06T01:25:55.325Z,7.79
2018-12-06T01:28:25.953Z,7.85
2018-12-06T01:30:56.506Z,7.84
2018-12-06T01:33:27.086Z,7.84
2018-12-06T01:35:57.651Z,7.88
2018-12-06T01:38:28.238Z,7.88
2018-12-06T01:40:58.803Z,7.93
2018-12-06T01:43:29.393Z,7.97
2018-12-06T01:46:00.227Z,7.99
2018-12-06T01:48:31.471Z,8.02
2018-12-06T01:51:02.031Z,8.03
2018-12-06T01:53:32.590Z,8.08
2018-12-06T01:56:03.161Z,8.14
2018-12-06T01:58:33.705Z,8.20
2018-12-06T02:01:05.250Z,8.23
2018-12-06T02:03:35.802Z,8.26
2018-12-06T02:06:06.650Z,8.32
2018-12-06T02:08:37.198Z,8.37
2018-12-06T02:11:07.797Z,8.40
2018-12-06T02:13:38.346Z,8.45
2018-12-06T02:16:08.957Z,8.50
2018-12-06T02:18:39.539Z,8.55
2018-12-06T02:21:10.114Z,8.59
2018-12-06T02:23:40.675Z,8.55
2018-12-06T02:26:11.631Z,8.53
2018-12-06T02:28:42.194Z,8.45
2018-12-06T02:31:13.084Z,8.39
2018-12-06T02:33:43.883Z,8.34
2018-12-06T02:36:14.460Z,8.32
2018-12-06T02:38:45.045Z,8.32
2018-12-06T02:41:15.892Z,8.32
2018-12-06T02:43:47.962Z,8.32
2018-12-06T02:46:18.580Z,8.31
2018-12-06T02:48:49.468Z,8.35
2018-12-06T02:51:20.155Z,8.33
2018-12-06T02:53:50.869Z,8.34
2018-12-06T02:56:21.553Z,8.32
2018-12-06T02:58:52.155Z,8.34
2018-12-06T03:01:23.127Z,8.36
2018-12-06T03:03:53.995Z,8.25
2018-12-06T03:06:24.619Z,8.24
2018-12-06T03:08:55.598Z,8.28
2018-12-06T03:11:26.171Z,8.22
2018-12-06T03:13:57.101Z,8.18
2018-12-06T03:16:27.912Z,8.12
2018-12-06T03:18:58.721Z,8.13
2018-12-06T03:21:29.303Z,8.16
2018-12-06T03:23:59.877Z,8.19
2018-12-06T03:26:30.445Z,8.22
2018-12-06T03:29:02.598Z,8.28
2018-12-06T03:31:33.595Z,8.37
2018-12-06T03:34:04.872Z,8.41
2018-12-06T03:36:35.450Z,8.46
2018-12-06T03:39:08.473Z,8.52
2018-12-06T03:41:39.273Z,8.57
2018-12-06T03:44:09.867Z,8.60
2018-12-06T03:46:40.447Z,8.60
2018-12-06T03:49:11.033Z,8.59
2018-12-06T03:51:41.607Z,8.58
2018-12-06T03:54:12.684Z,8.59
2018-12-06T03:56:43.303Z,8.53
2018-12-06T03:59:13.881Z,8.53
2018-12-06T04:01:44.470Z,8.55
2018-12-06T04:04:15.058Z,8.56
2018-12-06T04:06:45.619Z,8.59
2018-12-06T04:09:16.269Z,8.59
2018-12-06T04:11:47.398Z,8.60
2018-12-06T04:14:18.043Z,8.56
2018-12-06T04:16:48.682Z,8.56
2018-12-06T04:19:19.325Z,8.60
2018-12-06T04:21:49.939Z,8.67
2018-12-06T04:24:20.930Z,8.69
2018-12-06T04:26:51.554Z,8.67
2018-12-06T04:29:22.219Z,8.66
2018-12-06T04:31:52.879Z,8.67
2018-12-06T04:34:23.592Z,8.70
2018-12-06T04:36:54.771Z,8.71
2018-12-06T04:39:25.460Z,8.72
2018-12-06T04:41:56.029Z,8.73
2018-12-06T04:44:26.731Z,8.73
2018-12-06T04:46:57.539Z,8.71
2018-12-06T04:49:28.311Z,8.72
2018-12-06T04:51:58.949Z,8.72
2018-12-06T04:54:29.642Z,8.73
2018-12-06T04:57:00.221Z,8.71
2018-12-06T04:59:30.841Z,8.68
2018-12-06T05:02:02.297Z,8.73
2018-12-06T05:04:32.820Z,8.77
2018-12-06T05:07:03.851Z,8.80
2018-12-06T05:09:34.450Z,8.83
2018-12-06T05:12:05.477Z,8.84
2018-12-06T05:14:36.043Z,8.79
2018-12-06T05:17:06.821Z,8.74
2018-12-06T05:19:37.388Z,8.65
2018-12-06T05:22:07.985Z,8.64
2018-12-06T05:24:38.547Z,8.66
2018-12-06T05:27:09.512Z,8.66
2018-12-06T05:29:40.089Z,8.68
2018-12-06T05:32:10.697Z,8.68
2018-12-06T05:34:41.268Z,8.70
2018-12-06T05:37:11.987Z,8.66
2018-12-06T05:39:43.567Z,8.65
2018-12-06T05:42:14.209Z,8.65
2018-12-06T05:44:44.822Z,8.65
2018-12-06T05:47:15.496Z,8.64
2018-12-06T05:49:46.300Z,8.63
2018-12-06T05:52:16.940Z,8.63
2018-12-06T05:54:47.514Z,8.63
2018-12-06T05:57:18.098Z,8.63
2018-12-06T05:59:49.733Z,8.64
2018-12-06T06:02:20.359Z,8.61
2018-12-06T06:04:51.002Z,8.60
2018-12-06T06:07:21.669Z,8.61
2018-12-06T06:09:52.402Z,8.60
2018-12-06T06:12:23.058Z,8.49
2018-12-06T06:14:53.794Z,8.43
2018-12-06T06:17:24.550Z,8.45
2018-12-06T06:19:55.845Z,8.44
2018-12-06T06:22:29.742Z,8.47
2018-12-06T06:25:00.307Z,8.48
2018-12-06T06:27:30.986Z,8.50
2018-12-06T06:30:01.599Z,8.50
2018-12-06T06:32:32.441Z,8.51
2018-12-06T06:35:03.050Z,8.54
2018-12-06T06:37:33.622Z,8.55
2018-12-06T06:40:04.563Z,8.57
2018-12-06T06:42:36.194Z,8.59
2018-12-06T06:45:07.818Z,8.61
2018-12-06T06:47:38.435Z,8.66
2018-12-06T06:50:09.571Z,8.67
2018-12-06T06:52:41.598Z,8.70
2018-12-06T06:55:12.131Z,8.72
2018-12-06T06:57:42.750Z,8.75
2018-12-06T07:00:14.706Z,8.76
2018-12-06T07:02:45.273Z,8.77
2018-12-06T07:05:15.845Z,8.80
2018-12-06T07:07:46.505Z,8.81
2018-12-06T07:10:17.176Z,8.84
2018-12-06T07:12:48.215Z,8.80
2018-12-06T07:15:19.108Z,8.81
2018-12-06T07:17:52.596Z,8.84
2018-12-06T07:20:23.198Z,8.85
2018-12-06T07:22:54.609Z,8.86
2018-12-06T07:25:25.214Z,8.90
2018-12-06T07:27:55.773Z,8.90
2018-12-06T07:30:26.492Z,8.86
2018-12-06T07:32:57.019Z,8.88
2018-12-06T07:35:27.845Z,8.90
2018-12-06T07:37:58.461Z,8.89
2018-12-06T07:40:29.334Z,8.91
2018-12-06T07:43:00.039Z,8.93
2018-12-06T07:45:30.695Z,8.95
2018-12-06T07:48:01.398Z,8.97
2018-12-06T07:50:32.074Z,9.00
2018-12-06T07:53:02.661Z,9.03
2018-12-06T07:55:34.123Z,9.07
2018-12-06T07:58:04.746Z,9.09
2018-12-06T08:00:35.322Z,9.13
2018-12-06T08:03:06.009Z,9.15
2018-12-06T08:05:36.861Z,9.14
2018-12-06T08:08:08.214Z,9.17
2018-12-06T08:10:38.875Z,9.20
2018-12-06T08:13:09.458Z,9.21
2018-12-06T08:15:42.191Z,9.23
2018-12-06T08:18:12.796Z,9.26
2018-12-06T08:20:43.419Z,9.29
2018-12-06T08:23:14.015Z,9.35
2018-12-06T08:25:45.175Z,9.36
2018-12-06T08:28:15.869Z,9.39
2018-12-06T08:30:47.410Z,9.42
2018-12-06T08:33:17.964Z,9.45
2018-12-06T08:35:48.542Z,9.49
2018-12-06T08:38:19.163Z,9.53
2018-12-06T08:40:51.422Z,9.61
2018-12-06T08:43:21.997Z,9.66
2018-12-06T08:45:52.615Z,9.70
2018-12-06T08:48:23.182Z,9.72
2018-12-06T08:50:53.860Z,9.72
2018-12-06T08:53:24.678Z,9.76
2018-12-06T08:55:55.304Z,9.79
2018-12-06T08:58:25.894Z,9.81
2018-12-06T09:00:56.502Z,9.83
2018-12-06T09:03:27.826Z,9.86
2018-12-06T09:05:58.574Z,9.88
2018-12-06T09:08:32.435Z,9.90
2018-12-06T09:11:03.039Z,9.93
2018-12-06T09:13:34.307Z,9.96
2018-12-06T09:16:05.526Z,10.00
2018-12-06T09:18:36.190Z,10.03
2018-12-06T09:21:06.811Z,10.08
2018-12-06T09:23:37.598Z,10.09
2018-12-06T09:26:10.582Z,10.06
2018-12-06T09:28:42.171Z,10.07
2018-12-06T09:31:12.949Z,10.09
2018-12-06T09:34:00.456Z,10.10
2018-12-06T09:36:32.531Z,10.08
2018-12-06T09:39:05.330Z,10.06
2018-12-06T09:41:36.131Z,10.04
2018-12-06T09:44:07.302Z,10.06
2018-12-06T09:46:38.092Z,10.06
2018-12-06T09:49:08.815Z,10.05
2018-12-06T09:51:39.707Z,10.06
2018-12-06T09:54:11.429Z,10.06
2018-12-06T09:56:42.178Z,10.06
2018-12-06T09:59:13.083Z,10.01
2018-12-06T10:01:44.307Z,10.03
2018-12-06T10:04:14.883Z,10.06
2018-12-06T10:06:45.587Z,10.13
2018-12-06T10:09:17.333Z,10.21
2018-12-06T10:11:47.919Z,10.26
2018-12-06T10:14:19.709Z,10.33
2018-12-06T10:16:50.686Z,10.38
2018-12-06T10:19:21.267Z,10.39
2018-12-06T10:21:51.978Z,10.42
2018-12-06T10:24:22.889Z,10.47
2018-12-06T10:26:53.722Z,10.46
2018-12-06T10:29:24.366Z,10.50
2018-12-06T10:31:54.998Z,10.56
2018-12-06T10:34:25.607Z,10.60
2018-12-06T10:36:56.373Z,10.66
2018-12-06T10:39:27.006Z,10.71
2018-12-06T10:41:57.950Z,10.76
2018-12-06T10:44:31.619Z,10.84
2018-12-06T10:47:02.899Z,10.88
2018-12-06T10:49:33.494Z,10.90
2018-12-06T10:52:04.981Z,10.84
2018-12-06T10:54:35.595Z,10.83
2018-12-06T10:57:06.855Z,10.80
2018-12-06T10:59:38.300Z,10.82
2018-12-06T11:02:14.058Z,10.84
2018-12-06T11:04:44.662Z,10.84
2018-12-06T11:07:15.283Z,10.82
2018-12-06T11:09:45.862Z,10.81
2018-12-06T11:12:16.578Z,10.84
2018-12-06T11:14:47.859Z,10.86
2018-12-06T11:17:18.437Z,10.87
2018-12-06T11:19:49.242Z,10.87
2018-12-06T11:22:20.059Z,10.85
2018-12-06T11:24:50.659Z,10.83
2018-12-06T11:27:22.298Z,10.83
2018-12-06T11:30:34.842Z,10.89
2018-12-06T11:33:06.949Z,10.92
2018-12-06T11:35:37.533Z,10.93
2018-12-06T11:38:08.614Z,10.95
2018-12-06T11:40:39.219Z,10.98
2018-12-06T11:43:10.297Z,10.99
2018-12-06T11:45:41.168Z,11.04
2018-12-06T11:48:11.798Z,11.04
2018-12-06T11:50:42.620Z,11.05
2018-12-06T11:53:13.507Z,11.07
2018-12-06T11:55:44.146Z,11.10
2018-12-06T11:58:14.752Z,11.13
2018-12-06T12:00:45.664Z,11.14
2018-12-06T12:03:16.487Z,11.17
2018-12-06T12:05:47.181Z,11.20
2018-12-06T12:08:17.840Z,11.22
2018-12-06T12:10:48.624Z,11.24
2018-12-06T12:13:22.286Z,11.26
2018-12-06T12:15:54.260Z,11.23
2018-12-06T12:18:24.852Z,11.21
2018-12-06T12:20:56.456Z,11.23
2018-12-06T12:23:27.809Z,11.24
2018-12-06T12:25:58.741Z,11.23
2018-12-06T12:28:29.398Z,11.25
2018-12-06T12:31:00.035Z,11.25
2018-12-06T12:33:30.693Z,11.21
2018-12-06T12:36:01.306Z,11.24
2018-12-06T12:38:31.889Z,11.28
2018-12-06T12:41:02.554Z,11.32
2018-12-06T12:43:33.137Z,11.36
2018-12-06T12:46:03.746Z,11.37
2018-12-06T12:48:34.342Z,11.42
2018-12-06T12:51:05.485Z,11.48
2018-12-06T12:53:36.230Z,11.55
2018-12-06T12:56:06.931Z,11.60
2018-12-06T12:58:37.524Z,11.62
2018-12-06T13:01:08.295Z,11.66
2018-12-06T13:03:38.890Z,11.74
2018-12-06T13:06:10.465Z,11.77
2018-12-06T13:08:41.027Z,11.84
2018-12-06T13:11:11.635Z,11.83
2018-12-06T13:13:42.203Z,11.95
2018-12-06T13:16:13.082Z,12.05
2018-12-06T13:18:44.066Z,12.14
2018-12-06T13:21:14.661Z,12.19
2018-12-06T13:23:45.255Z,12.21
2018-12-06T13:26:15.846Z,12.23
2018-12-06T13:28:47.400Z,12.30
2018-12-06T13:31:17.994Z,12.36
2018-12-06T13:33:48.629Z,12.40
2018-12-06T13:36:19.686Z,12.47
2018-12-06T13:38:50.351Z,12.50
2018-12-06T13:41:20.975Z,12.56
2018-12-06T13:43:52.147Z,12.61
2018-12-06T13:46:23.266Z,12.63
2018-12-06T13:48:54.410Z,12.63
2018-12-06T13:51:25.139Z,12.65
2018-12-06T13:53:56.661Z,12.68
2018-12-06T13:56:27.375Z,12.67
2018-12-06T13:58:58.631Z,12.66
2018-12-06T14:01:29.458Z,12.64
2018-12-06T14:04:00.343Z,12.61
2018-12-06T14:06:31.047Z,12.59
2018-12-06T14:09:01.746Z,12.56
2018-12-06T14:11:33.886Z,12.54
2018-12-06T14:14:05.083Z,12.53
2018-12-06T14:16:35.795Z,12.52
2018-12-06T14:19:06.494Z,12.50
2018-12-06T14:21:37.631Z,12.47
2018-12-06T14:24:08.203Z,12.45
2018-12-06T14:26:38.845Z,12.44
2018-12-06T14:29:09.442Z,12.44
2018-12-06T14:31:40.058Z,12.42
2018-12-06T14:34:11.716Z,12.41
2018-12-06T14:36:42.382Z,12.41
2018-12-06T14:39:12.972Z,12.38
2018-12-06T14:41:43.582Z,12.36
2018-12-06T14:44:14.237Z,12.35
2018-12-06T14:46:45.237Z,12.34
2018-12-06T14:49:16.172Z,12.33
2018-12-06T14:51:47.096Z,12.30
2018-12-06T14:54:18.886Z,12.27
2018-12-06T14:56:50.002Z,12.24
2018-12-06T14:59:22.735Z,12.21
2018-12-06T15:01:53.717Z,12.20
2018-12-06T15:04:24.443Z,12.20
2018-12-06T15:06:55.784Z,12.19
2018-12-06T15:09:27.522Z,12.20
2018-12-06T15:11:58.127Z,12.17
2018-12-06T15:14:28.805Z,12.10
2018-12-06T15:17:00.721Z,12.05
2018-12-06T15:19:31.586Z,12.02
2018-12-06T15:22:02.177Z,11.99
2018-12-06T15:24:33.176Z,11.95
2018-12-06T15:27:03.759Z,11.94
2018-12-06T15:29:34.409Z,11.96
2018-12-06T15:32:05.711Z,11.95
2018-12-06T15:34:37.133Z,11.89
2018-12-06T15:37:07.867Z,11.84
2018-12-06T15:39:38.707Z,11.82
2018-12-06T15:42:09.321Z,11.79
2018-12-06T15:44:39.956Z,11.75
2018-12-06T15:47:10.694Z,11.72
2018-12-06T15:49:41.310Z,11.69
2018-12-06T15:52:11.924Z,11.67
2018-12-06T15:54:42.896Z,11.67
2018-12-06T15:57:13.823Z,11.66
2018-12-06T15:59:44.470Z,11.63
2018-12-06T16:02:15.600Z,11.55
2018-12-06T16:04:46.254Z,11.55
2018-12-06T16:07:16.970Z,11.49
2018-12-06T16:09:47.591Z,11.47
2018-12-06T16:12:18.181Z,11.47
2018-12-06T16:14:48.886Z,11.47
2018-12-06T16:17:21.521Z,11.47
2018-12-06T16:19:52.227Z,11.48
2018-12-06T16:22:22.892Z,11.50
2018-12-06T16:24:53.638Z,11.53
2018-12-06T16:27:24.230Z,11.54
2018-12-06T16:29:55.743Z,11.54
2018-12-06T16:32:26.579Z,11.56
2018-12-06T16:34:57.199Z,11.57
2018-12-06T16:37:27.878Z,11.58
2018-12-06T16:39:58.654Z,11.59
2018-12-06T16:42:29.391Z,11.57
2018-12-06T16:45:00.522Z,11.59
2018-12-06T16:47:31.401Z,11.58
2018-12-06T16:50:02.093Z,11.61
2018-12-06T16:52:32.814Z,11.60
2018-12-06T16:55:03.457Z,11.61
2018-12-06T16:57:35.753Z,11.60
2018-12-06T17:00:14.579Z,11.60
2018-12-06T17:02:46.420Z,11.57
2018-12-06T17:05:17.165Z,11.56
2018-12-06T17:07:48.830Z,11.57
2018-12-06T17:10:19.431Z,11.58
2018-12-06T17:12:50.152Z,11.59
2018-12-06T17:15:20.788Z,11.59
2018-12-06T17:17:51.414Z,11.58
2018-12-06T17:20:22.159Z,11.60
2018-12-06T17:22:52.826Z,11.61
2018-12-06T17:25:23.419Z,11.65
2018-12-06T17:27:54.534Z,11.68
2018-12-06T17:30:25.151Z,11.68
2018-12-06T17:32:56.275Z,11.69
2018-12-06T17:35:28.071Z,11.68
2018-12-06T17:37:59.231Z,11.68
2018-12-06T17:40:30.479Z,11.68
2018-12-06T17:43:01.122Z,11.66
2018-12-06T17:45:32.684Z,11.66
2018-12-06T17:48:04.119Z,11.64
2018-12-06T17:50:35.154Z,11.62
2018-12-06T17:53:05.853Z,11.62
2018-12-06T17:55:49.978Z,11.60
2018-12-06T17:58:21.305Z,11.60
2018-12-06T18:00:52.159Z,11.57
2018-12-06T18:03:22.815Z,11.56
2018-12-06T18:05:53.523Z,11.56
2018-12-06T18:08:24.265Z,11.54
2018-12-06T18:10:55.097Z,11.55
2018-12-06T18:13:25.830Z,11.56
2018-12-06T18:15:56.446Z,11.56
2018-12-06T18:18:27.088Z,11.57
2018-12-06T18:20:58.969Z,11.54
2018-12-06T18:23:29.590Z,11.53
2018-12-06T18:26:00.211Z,11.51
2018-12-06T18:28:30.839Z,11.52
2018-12-06T18:31:01.529Z,11.51
2018-12-06T18:33:32.767Z,11.51
2018-12-06T18:36:03.494Z,11.50
2018-12-06T18:38:34.280Z,11.45
2018-12-06T18:41:05.674Z,11.48
2018-12-06T18:43:36.590Z,11.49
2018-12-06T18:46:07.211Z,11.48
2018-12-06T18:48:38.192Z,11.48
2018-12-06T18:51:08.767Z,11.50
2018-12-06T18:53:40.096Z,11.53
2018-12-06T18:56:11.986Z,11.51
2018-12-06T18:58:42.642Z,11.50
2018-12-06T19:01:13.660Z,11.51
2018-12-06T19:03:44.270Z,11.53
2018-12-06T19:06:15.269Z,11.56
2018-12-06T19:08:46.336Z,11.58
2018-12-06T19:11:17.785Z,11.61
2018-12-06T19:13:49.113Z,11.63
2018-12-06T19:16:20.282Z,11.63
2018-12-06T19:18:51.059Z,11.64
2018-12-06T19:21:22.313Z,11.65
2018-12-06T19:23:53.473Z,11.66
2018-12-06T19:26:24.634Z,11.68
2018-12-06T19:28:55.362Z,11.68
2018-12-06T19:31:26.710Z,11.70
2018-12-06T19:33:57.769Z,11.72
2018-12-06T19:36:29.106Z,11.74
2018-12-06T19:39:00.125Z,11.73
2018-12-06T19:41:30.790Z,11.74
2018-12-06T19:44:01.929Z,11.58
2018-12-06T19:46:32.940Z,11.55
2018-12-06T19:49:03.573Z,11.49
2018-12-06T19:51:34.967Z,11.51
2018-12-06T19:54:06.417Z,11.53
2018-12-06T19:56:37.594Z,11.54
2018-12-06T19:59:08.704Z,11.55
2018-12-06T20:01:39.745Z,11.56
2018-12-06T20:04:10.826Z,11.58
2018-12-06T20:06:42.225Z,11.61
2018-12-06T20:09:12.814Z,11.64
2018-12-06T20:11:43.917Z,11.68
2018-12-06T20:14:14.811Z,11.71
2018-12-06T20:16:46.842Z,11.74
2018-12-06T20:19:17.902Z,11.76
2018-12-06T20:21:48.729Z,11.76
2018-12-06T20:24:19.334Z,11.75
2018-12-06T20:26:50.515Z,11.69
2018-12-06T20:29:21.545Z,11.70
2018-12-06T20:31:52.652Z,11.68
2018-12-06T20:34:23.305Z,11.62
2018-12-06T20:36:54.155Z,11.59
2018-12-06T20:39:25.159Z,11.53
2018-12-06T20:41:55.890Z,11.58
2018-12-06T20:44:27.710Z,11.62
2018-12-06T20:46:58.342Z,11.61
2018-12-06T20:49:29.005Z,11.58
2018-12-06T20:52:01.251Z,11.59
2018-12-06T20:54:32.572Z,11.65
2018-12-06T20:57:03.248Z,11.69
2018-12-06T20:59:34.118Z,11.73
2018-12-06T21:02:05.698Z,11.76
2018-12-06T21:04:36.792Z,11.73
2018-12-06T21:07:07.531Z,11.75
2018-12-06T21:09:39.039Z,11.79
2018-12-06T21:12:10.290Z,11.80
2018-12-06T21:14:40.888Z,11.81
2018-12-06T21:17:12.120Z,11.82
2018-12-06T21:19:42.729Z,11.86
2018-12-06T21:22:13.496Z,11.85
2018-12-06T21:24:44.546Z,11.89
2018-12-06T21:27:15.337Z,11.92
2018-12-06T21:29:45.972Z,11.93
2018-12-06T21:32:16.613Z,11.90
2018-12-06T21:34:48.363Z,11.88
2018-12-06T21:37:19.018Z,11.89
2018-12-06T21:39:51.330Z,11.91
2018-12-06T21:42:22.509Z,11.88
2018-12-06T21:44:53.142Z,11.85
2018-12-06T21:47:25.803Z,11.88
2018-12-06T21:49:57.378Z,11.88
2018-12-06T21:52:27.993Z,11.90
2018-12-06T21:54:58.641Z,11.91
2018-12-06T21:57:29.230Z,11.88
2018-12-06T21:59:59.834Z,11.91
2018-12-06T22:02:30.433Z,11.89
2018-12-06T22:05:01.571Z,11.93
2018-12-06T22:07:32.652Z,11.95
2018-12-06T22:10:03.280Z,11.97
2018-12-06T22:12:33.865Z,11.97
2018-12-06T22:15:05.820Z,11.99
2018-12-06T22:17:36.473Z,12.02
2018-12-06T22:20:07.518Z,12.03
2018-12-06T22:22:38.136Z,12.01
2018-12-06T22:25:09.584Z,12.01
2018-12-06T22:27:40.174Z,11.99
2018-12-06T22:30:11.798Z,12.00
2018-12-06T22:32:42.685Z,12.02
2018-12-06T22:35:13.274Z,12.01
2018-12-06T22:37:43.978Z,12.04
2018-12-06T22:40:14.566Z,12.04
2018-12-06T22:42:45.569Z,12.05
2018-12-06T22:46:27.248Z,12.06
2018-12-06T22:48:57.839Z,12.04
2018-12-06T22:51:30.747Z,12.00
2018-12-06T22:54:01.403Z,12.00
2018-12-06T22:56:31.998Z,12.01
2018-12-06T22:59:03.683Z,12.01
2018-12-06T23:01:40.512Z,12.02
2018-12-06T23:04:11.387Z,12.04
2018-12-06T23:06:41.986Z,12.00
2018-12-06T23:09:12.628Z,12.01
2018-12-06T23:11:43.215Z,11.99
2018-12-06T23:14:14.511Z,12.03
2018-12-06T23:16:45.225Z,12.09
2018-12-06T23:19:15.885Z,12.09
2018-12-06T23:21:47.407Z,12.10
2018-12-06T23:24:18.794Z,12.11
2018-12-06T23:26:49.382Z,12.14
2018-12-06T23:32:38.471Z,12.16
2018-12-06T23:35:09.487Z,12.17
2018-12-06T23:37:40.095Z,12.18
2018-12-06T23:40:12.001Z,12.19
2018-12-06T23:42:42.990Z,12.17
2018-12-06T23:45:14.187Z,12.14
2018-12-06T23:47:44.806Z,12.13
2018-12-06T23:50:16.206Z,12.09
2018-12-06T23:52:46.839Z,12.11
2018-12-06T23:55:17.456Z,12.12
2018-12-06T23:57:49.144Z,12.12
